This is the latest recevied weather packets stored in our database for station/object W7TTE. If no packets are shown the sender has not sent any weather packets the latest 10 day(s).
| Time | Temp. | Humidity | Pressure | Rain* | Wind** | Luminosity | Snow |
|---|---|---|---|---|---|---|---|
| 1777868179 | 26.67° C | 28% | 1012.2 hPa | 0 mm | - | 0 W/m² | - |
| 1777867875 | 26.67° C | 27% | 1012 hPa | 0 mm | - | 0 W/m² | - |
| 1777867573 | 27.22° C | 27% | 1012.1 hPa | 0 mm | - | 0 W/m² | - |
| 1777867269 | 27.22° C | 26% | 1011.7 hPa | 0 mm | - | 0 W/m² | - |
| 1777866966 | 27.22° C | 26% | 1011.9 hPa | 0 mm | - | 0 W/m² | - |
| 1777866662 | 27.22° C | 26% | 1011.4 hPa | 0 mm | - | 0 W/m² | - |
| 1777866057 | 27.78° C | 24% | 1011.6 hPa | 0 mm | - | 0 W/m² | - |
| 1777865755 | 27.78° C | 24% | 1011.2 hPa | 0 mm | - | 0 W/m² | - |
| 1777865452 | 27.78° C | 23% | 1011.1 hPa | 0 mm | - | 0 W/m² | - |
| 1777863330 | 28.89° C | 21% | 1010.3 hPa | 0 mm | - | 0 W/m² | - |
| 1777847568 | 35.56° C | 16% | 1009.1 hPa | 0 mm | - | 489 W/m² | - |
| 1777846660 | 36.67° C | 15% | 1009.3 hPa | 0 mm | - | 534 W/m² | - |
| 1777845447 | 36.67° C | 15% | 1009.6 hPa | 0 mm | - | 591 W/m² | - |
| 1777845144 | 36.67° C | 15% | 1009.4 hPa | 0 mm | - | 605 W/m² | - |
| 1777844539 | 36.67° C | 16% | 1009.7 hPa | 0 mm | - | 628 W/m² | - |
| 1777843631 | 36.11° C | 15% | 1009.9 hPa | 0 mm | - | 658 W/m² | - |
| 1777843328 | 36.11° C | 16% | 1010.3 hPa | 0 mm | - | 673 W/m² | - |
| 1777843026 | 36.11° C | 16% | 1010.2 hPa | 0 mm | - | 682 W/m² | - |
| 1777842721 | 36.11° C | 15% | 1010.1 hPa | 0 mm | - | 692 W/m² | - |
| 1777842418 | 35.56° C | 16% | 1010.3 hPa | 0 mm | - | 701 W/m² | - |
| 1777842114 | 36.11° C | 15% | 1010.5 hPa | 0 mm | - | 710 W/m² | - |
| 1777841810 | 36.67° C | 15% | 1010.6 hPa | 0 mm | - | 716 W/m² | - |
| 1777840901 | 35.56° C | 15% | 1010.9 hPa | 0 mm | - | 741 W/m² | - |
| 1777840598 | 36.11° C | 16% | 1010.8 hPa | 0 mm | - | 748 W/m² | - |
| 1777840295 | 35.56° C | 16% | 1011 hPa | 0 mm | - | 754 W/m² | - |
* Rain latest hour (hover to see other rain measurements)
** Current wind speed in m/s (hover to see current wind gust speed)